YPEA weather

RAAF Base Pearce
Bullsbrook, Western Australia, Australia

Public forecast

Using degrees Celsius for public forecast. Weather courtesy of forecast.io.

Current aviation weather report (METAR) for RAAF Base Pearce

Retrieved 2019/11/14 12:30 UTC (14 minutes ago):

YPEA 141230Z 18009KT CAVOK 29/10 Q1012 NOSIG RMK USE TAF FOR ARRIVALS AFTER 1330Z

Aviation forecast (TAF) for RAAF Base Pearce

Forecast is more than 6 hours old.

Retrieved 2019/11/14 06:00 UTC (7 hours ago):

TAF YPEA 140455Z 1406/1500 22014KT CAVOK FM141000 17008KT CAVOK FM141700 11015G25KT CAVOK